createdAt,value
2022-09-18T00:01:39.270Z,273.17
2022-09-18T00:04:10.992Z,255.65
2022-09-18T00:06:41.242Z,269.85
2022-09-18T00:09:14.443Z,273.58
2022-09-18T00:11:46.898Z,283.88
2022-09-18T00:14:20.010Z,291.45
2022-09-18T00:16:48.487Z,271.23
2022-09-18T00:19:18.035Z,281.80
2022-09-18T00:21:49.742Z,273.58
2022-09-18T00:24:18.916Z,280.05
2022-09-18T00:26:48.075Z,286.00
2022-09-18T00:29:18.045Z,266.77
2022-09-18T00:31:46.595Z,279.67
2022-09-18T00:34:15.794Z,275.38
2022-09-18T00:36:43.933Z,275.70
2022-09-18T00:39:13.090Z,278.77
2022-09-18T00:41:44.059Z,275.98
2022-09-18T00:44:29.892Z,277.98
2022-09-18T00:47:29.038Z,267.67
2022-09-18T00:50:10.132Z,272.45
2022-09-18T00:52:54.478Z,267.25
2022-09-18T00:55:29.307Z,281.98
2022-09-18T00:58:00.632Z,277.10
2022-09-18T01:00:29.810Z,273.13
2022-09-18T01:02:59.559Z,263.38
2022-09-18T01:05:54.431Z,279.92
2022-09-18T01:08:56.705Z,270.90
2022-09-18T01:11:51.745Z,258.60
2022-09-18T01:14:41.562Z,256.50
2022-09-18T01:17:16.225Z,276.13
2022-09-18T01:20:41.465Z,268.17
2022-09-18T01:23:49.376Z,262.55
2022-09-18T01:26:50.147Z,261.25
2022-09-18T01:29:32.740Z,272.50
2022-09-18T01:32:28.063Z,279.23
2022-09-18T01:35:40.105Z,259.80
2022-09-18T01:38:27.357Z,261.17
2022-09-18T01:41:16.893Z,254.50
2022-09-18T01:43:45.832Z,273.45
2022-09-18T01:46:19.671Z,275.30
2022-09-18T01:48:59.941Z,275.33
2022-09-18T01:52:18.342Z,280.00
2022-09-18T01:54:50.237Z,262.80
2022-09-18T01:57:52.237Z,285.50
2022-09-18T02:00:21.919Z,253.77
2022-09-18T02:03:03.390Z,269.95
2022-09-18T02:06:03.281Z,283.10
2022-09-18T02:08:41.409Z,264.10
2022-09-18T02:11:13.323Z,277.92
2022-09-18T02:14:06.346Z,270.77
2022-09-18T02:17:11.489Z,271.73
2022-09-18T02:19:57.626Z,273.15
2022-09-18T02:22:30.547Z,262.73
2022-09-18T02:25:04.235Z,266.73
2022-09-18T02:27:34.491Z,273.45
2022-09-18T02:30:05.762Z,265.77
2022-09-18T02:32:39.578Z,274.90
2022-09-18T02:35:10.173Z,262.23
2022-09-18T02:37:47.898Z,267.98
2022-09-18T02:40:33.323Z,262.13
2022-09-18T02:43:40.419Z,255.20
2022-09-18T02:46:21.748Z,256.42
2022-09-18T02:49:17.242Z,262.55
2022-09-18T02:51:59.402Z,264.25
2022-09-18T02:54:41.240Z,267.80
2022-09-18T02:57:20.397Z,264.30
2022-09-18T02:59:56.094Z,264.77
2022-09-18T03:02:25.839Z,256.10
2022-09-18T03:04:54.412Z,259.40
2022-09-18T03:07:29.252Z,261.05
2022-09-18T03:09:59.387Z,252.38
2022-09-18T03:12:27.305Z,263.05
2022-09-18T03:14:55.250Z,264.27
2022-09-18T03:17:24.857Z,256.67
2022-09-18T03:19:54.129Z,269.92
2022-09-18T03:22:21.974Z,261.80
2022-09-18T03:25:35.537Z,286.05
2022-09-18T03:28:04.776Z,250.67
2022-09-18T03:30:37.783Z,276.83
2022-09-18T03:33:06.184Z,263.65
2022-09-18T03:35:34.342Z,266.33
2022-09-18T03:38:02.341Z,265.20
2022-09-18T03:40:32.169Z,267.42
2022-09-18T03:43:04.862Z,254.20
2022-09-18T03:45:32.905Z,265.52
2022-09-18T03:48:03.187Z,270.92
2022-09-18T03:50:31.405Z,276.35
2022-09-18T03:52:59.325Z,267.33
2022-09-18T03:55:47.080Z,273.42
2022-09-18T03:58:35.074Z,264.45
2022-09-18T04:01:13.863Z,248.52
2022-09-18T04:04:07.413Z,254.43
2022-09-18T04:07:00.933Z,269.55
2022-09-18T04:09:49.081Z,262.67
2022-09-18T04:12:17.328Z,262.13
2022-09-18T04:14:48.662Z,267.35
2022-09-18T04:17:16.638Z,267.58
2022-09-18T04:19:44.431Z,274.40
2022-09-18T04:22:12.423Z,282.15
2022-09-18T04:24:40.974Z,262.45
2022-09-18T04:27:09.044Z,258.02
2022-09-18T04:29:38.568Z,279.83
2022-09-18T04:32:08.340Z,264.88
2022-09-18T04:34:36.491Z,276.00
2022-09-18T04:37:09.405Z,271.83
2022-09-18T04:39:38.381Z,275.65
2022-09-18T04:42:06.423Z,259.88
2022-09-18T04:44:34.469Z,267.45
2022-09-18T04:47:02.436Z,256.67
2022-09-18T04:49:30.334Z,271.38
2022-09-18T04:51:58.148Z,271.08
2022-09-18T04:54:26.225Z,265.90
2022-09-18T04:56:54.472Z,283.58
2022-09-18T04:59:22.914Z,270.35
2022-09-18T05:01:55.246Z,262.63
2022-09-18T05:04:23.498Z,280.27
2022-09-18T05:06:57.813Z,260.52
2022-09-18T05:09:26.113Z,266.05
2022-09-18T05:11:54.611Z,275.52
2022-09-18T05:14:24.785Z,251.85
2022-09-18T05:16:56.720Z,280.88
2022-09-18T05:19:37.722Z,255.05
2022-09-18T05:22:11.673Z,267.10
2022-09-18T05:24:44.076Z,259.65
2022-09-18T05:27:14.308Z,267.90
2022-09-18T05:29:42.873Z,288.15
2022-09-18T05:32:20.197Z,278.75
2022-09-18T05:34:50.202Z,271.40
2022-09-18T05:37:19.257Z,278.42
2022-09-18T05:39:51.809Z,282.00
2022-09-18T05:42:19.668Z,289.90
2022-09-18T05:44:47.694Z,283.23
2022-09-18T05:47:21.038Z,283.10
2022-09-18T05:49:49.232Z,276.33
2022-09-18T05:52:16.925Z,291.70
2022-09-18T05:54:45.502Z,282.67
2022-09-18T05:57:13.624Z,273.95
2022-09-18T05:59:41.807Z,275.92
2022-09-18T06:02:14.596Z,275.40
2022-09-18T06:05:01.189Z,279.17
2022-09-18T06:07:29.034Z,269.40
2022-09-18T06:09:59.230Z,266.30
2022-09-18T06:12:27.902Z,275.38
2022-09-18T06:14:56.169Z,265.38
2022-09-18T06:17:27.906Z,284.13
2022-09-18T06:20:00.733Z,269.10
2022-09-18T06:22:28.949Z,287.17
2022-09-18T06:24:58.456Z,278.23
2022-09-18T06:27:33.890Z,278.40
2022-09-18T06:30:02.877Z,268.35
2022-09-18T06:32:34.497Z,282.58
2022-09-18T06:35:02.648Z,291.92
2022-09-18T06:37:30.421Z,286.80
2022-09-18T06:40:11.790Z,286.02
2022-09-18T06:43:05.812Z,271.17
2022-09-18T06:46:05.769Z,286.88
2022-09-18T06:48:40.716Z,292.20
2022-09-18T06:51:09.895Z,328.17
2022-09-18T06:53:58.087Z,313.25
2022-09-18T06:56:26.319Z,288.65
2022-09-18T06:58:55.659Z,300.10
2022-09-18T07:01:24.041Z,304.63
2022-09-18T07:04:03.707Z,288.42
2022-09-18T07:06:45.779Z,302.92
2022-09-18T07:09:15.478Z,299.67
2022-09-18T07:12:04.767Z,301.13
2022-09-18T07:14:47.084Z,301.30
2022-09-18T07:17:18.655Z,304.85
2022-09-18T07:19:49.944Z,313.90
2022-09-18T07:22:20.143Z,305.63
2022-09-18T07:24:51.619Z,301.40
2022-09-18T07:27:19.874Z,302.63
2022-09-18T07:29:50.420Z,322.77
2022-09-18T07:32:22.235Z,328.55
2022-09-18T07:34:50.885Z,330.85
2022-09-18T07:37:30.250Z,325.73
2022-09-18T07:40:36.944Z,329.70
2022-09-18T07:43:10.956Z,343.75
2022-09-18T07:45:45.828Z,345.48
2022-09-18T07:48:14.373Z,340.10
2022-09-18T07:50:47.692Z,331.33
2022-09-18T07:53:18.669Z,353.67
2022-09-18T07:55:49.821Z,340.15
2022-09-18T07:58:19.605Z,348.17
2022-09-18T08:01:03.348Z,346.90
2022-09-18T08:03:35.076Z,360.35
2022-09-18T08:06:12.446Z,347.60
2022-09-18T08:08:59.727Z,348.65
2022-09-18T08:11:56.225Z,352.33
2022-09-18T08:14:47.677Z,362.45
2022-09-18T08:17:26.344Z,363.52
2022-09-18T08:20:07.053Z,366.48
2022-09-18T08:22:55.892Z,358.67
2022-09-18T08:25:27.789Z,374.55
2022-09-18T08:28:04.893Z,370.98
2022-09-18T08:30:47.851Z,382.02
2022-09-18T08:33:16.172Z,375.33
2022-09-18T08:35:44.428Z,397.13
2022-09-18T08:38:25.646Z,397.35
2022-09-18T08:41:26.669Z,394.77
2022-09-18T08:44:05.144Z,385.55
2022-09-18T08:47:00.664Z,386.98
2022-09-18T08:49:45.218Z,392.83
2022-09-18T08:52:23.006Z,391.42
2022-09-18T08:55:31.136Z,411.42
2022-09-18T08:58:56.341Z,403.67
2022-09-18T09:02:09.664Z,407.02
2022-09-18T09:04:37.801Z,409.10
2022-09-18T09:07:39.878Z,408.67
2022-09-18T09:10:31.061Z,430.15
2022-09-18T09:13:17.973Z,408.08
2022-09-18T09:15:54.588Z,430.92
2022-09-18T09:19:13.487Z,420.63
2022-09-18T09:22:23.155Z,448.42
2022-09-18T09:25:06.329Z,425.52
2022-09-18T09:29:00.612Z,429.88
2022-09-18T09:32:21.248Z,426.38
2022-09-18T09:35:26.271Z,434.30
2022-09-18T09:38:42.684Z,457.45
2022-09-18T09:41:39.188Z,453.70
2022-09-18T09:44:49.857Z,453.88
2022-09-18T09:47:57.900Z,446.42
2022-09-18T09:50:31.415Z,458.75
2022-09-18T09:53:04.745Z,487.35
2022-09-18T09:55:43.269Z,474.05
2022-09-18T09:58:35.968Z,486.35
2022-09-18T10:01:46.727Z,505.60
2022-09-18T10:04:51.894Z,494.17
2022-09-18T10:07:46.995Z,486.80
2022-09-18T10:10:41.745Z,492.05
2022-09-18T10:13:40.051Z,483.58
2022-09-18T10:16:22.280Z,490.65
2022-09-18T10:18:51.108Z,487.77
2022-09-18T10:21:24.526Z,498.17
2022-09-18T10:24:08.433Z,515.55
2022-09-18T10:26:54.838Z,512.53
2022-09-18T10:29:23.104Z,501.05
2022-09-18T10:31:59.083Z,516.63
2022-09-18T10:34:49.724Z,510.60
2022-09-18T10:37:30.418Z,523.33
2022-09-18T10:40:05.429Z,545.67
2022-09-18T10:42:37.060Z,530.65
2022-09-18T10:45:30.803Z,560.80
2022-09-18T10:48:23.913Z,567.10
2022-09-18T10:51:00.990Z,592.72
2022-09-18T10:53:43.669Z,576.03
2022-09-18T10:56:21.821Z,589.45
2022-09-18T10:58:53.668Z,612.92
2022-09-18T11:01:27.702Z,606.25
2022-09-18T11:04:04.080Z,594.85
2022-09-18T11:06:37.650Z,599.22
2022-09-18T11:09:27.428Z,595.72
2022-09-18T11:11:56.244Z,595.05
2022-09-18T11:14:33.535Z,614.75
2022-09-18T11:17:05.837Z,581.03
2022-09-18T11:19:40.870Z,592.08
2022-09-18T11:22:34.258Z,607.35
2022-09-18T11:25:15.453Z,570.90
2022-09-18T11:27:53.796Z,569.78
2022-09-18T11:30:28.051Z,553.80
2022-09-18T11:33:10.329Z,558.85
2022-09-18T11:35:46.772Z,558.95
2022-09-18T11:38:20.068Z,550.20
2022-09-18T11:40:55.516Z,543.13
2022-09-18T11:43:34.924Z,533.47
2022-09-18T11:46:47.768Z,538.05
2022-09-18T11:49:22.465Z,524.03
2022-09-18T11:51:58.382Z,531.10
2022-09-18T11:54:56.428Z,544.95
2022-09-18T11:57:40.144Z,520.70
2022-09-18T12:00:12.860Z,507.08
2022-09-18T12:03:05.905Z,513.63
2022-09-18T12:05:59.053Z,511.98
2022-09-18T12:08:55.019Z,500.52
2022-09-18T12:11:51.320Z,517.80
2022-09-18T12:15:20.001Z,496.25
2022-09-18T12:18:03.720Z,502.52
2022-09-18T12:20:44.572Z,484.23
2022-09-18T12:23:23.975Z,496.60
2022-09-18T12:26:13.426Z,476.55
2022-09-18T12:29:19.038Z,495.98
2022-09-18T12:32:24.884Z,516.42
2022-09-18T12:35:39.663Z,470.88
2022-09-18T12:38:19.069Z,481.13
2022-09-18T12:41:28.860Z,514.08
2022-09-18T12:44:11.205Z,476.42
2022-09-18T12:47:02.324Z,515.45
2022-09-18T12:49:55.494Z,481.90
2022-09-18T12:52:32.932Z,487.27
2022-09-18T12:55:27.837Z,488.80
2022-09-18T12:58:43.668Z,466.38
2022-09-18T13:01:50.304Z,466.70
2022-09-18T13:04:33.412Z,494.92
2022-09-18T13:07:46.972Z,487.88
2022-09-18T13:10:31.005Z,472.95
2022-09-18T13:13:09.533Z,478.35
2022-09-18T13:16:03.426Z,471.05
2022-09-18T13:18:40.516Z,468.10
2022-09-18T13:21:30.110Z,473.35
2022-09-18T13:23:59.691Z,473.17
2022-09-18T13:26:32.373Z,463.13
2022-09-18T13:29:01.025Z,464.90
2022-09-18T13:31:38.043Z,476.77
2022-09-18T13:34:18.371Z,472.08
2022-09-18T13:36:47.399Z,478.20
2022-09-18T13:39:19.139Z,461.42
2022-09-18T13:41:53.245Z,477.73
2022-09-18T13:44:28.195Z,493.35
2022-09-18T13:47:09.950Z,470.65
2022-09-18T13:50:00.915Z,487.42
2022-09-18T13:52:35.028Z,483.08
2022-09-18T13:55:25.328Z,485.33
2022-09-18T13:58:31.154Z,483.48
2022-09-18T14:01:10.487Z,484.15
2022-09-18T14:03:42.366Z,483.27
2022-09-18T14:06:35.155Z,484.80
2022-09-18T14:09:55.434Z,481.33
2022-09-18T14:12:25.536Z,485.23
2022-09-18T14:15:21.144Z,468.80
2022-09-18T14:18:16.563Z,484.77
2022-09-18T14:20:52.493Z,485.77
2022-09-18T14:23:35.988Z,180.13
2022-09-18T14:26:31.174Z,53.38
2022-09-18T14:29:27.217Z,434.88
2022-09-18T14:31:58.131Z,457.92
2022-09-18T14:34:37.661Z,40.42
2022-09-18T14:37:29.552Z,518.45
2022-09-18T14:39:59.367Z,510.38
2022-09-18T14:42:38.683Z,538.45
2022-09-18T14:45:13.008Z,558.85
2022-09-18T14:47:44.458Z,3.75
2022-09-18T14:50:35.064Z,3.75
2022-09-18T14:53:21.864Z,3.50
2022-09-18T14:55:56.155Z,3.17
2022-09-18T14:58:36.928Z,4.07
2022-09-18T15:01:19.130Z,5.00
2022-09-18T15:03:50.623Z,4.90
2022-09-18T15:06:45.308Z,4.55
2022-09-18T15:09:16.917Z,5.05
2022-09-18T15:12:01.821Z,4.45
2022-09-18T15:14:46.775Z,5.20
2022-09-18T15:17:25.264Z,5.20
2022-09-18T15:20:14.396Z,4.97
2022-09-18T15:22:42.887Z,5.20
2022-09-18T15:25:20.692Z,5.68
2022-09-18T15:27:49.321Z,6.65
2022-09-18T15:30:23.907Z,4.15
2022-09-18T15:32:56.615Z,4.15
2022-09-18T15:35:30.061Z,3.33
2022-09-18T15:38:03.438Z,4.18
2022-09-18T15:40:36.069Z,4.07
2022-09-18T15:43:11.356Z,4.20
2022-09-18T15:45:39.583Z,4.10
2022-09-18T15:48:39.675Z,4.85
2022-09-18T15:51:25.844Z,4.43
2022-09-18T15:54:12.739Z,6.60
2022-09-18T15:57:01.114Z,5.65
2022-09-18T15:59:37.085Z,127.13
2022-09-18T16:02:37.758Z,5.65
2022-09-18T16:05:14.963Z,8.13
2022-09-18T16:07:58.034Z,5.93
2022-09-18T16:10:35.066Z,5.97
2022-09-18T16:13:26.823Z,573.60
2022-09-18T16:16:24.425Z,552.35
2022-09-18T16:18:56.840Z,547.92
2022-09-18T16:21:28.090Z,551.17
2022-09-18T16:24:01.640Z,535.50
2022-09-18T16:26:35.973Z,540.53
2022-09-18T16:29:13.465Z,532.75
2022-09-18T16:31:41.696Z,520.30
2022-09-18T16:34:21.592Z,529.78
2022-09-18T16:36:50.726Z,519.45
2022-09-18T16:39:25.292Z,535.95
2022-09-18T16:41:53.972Z,520.03
2022-09-18T16:44:22.122Z,530.55
2022-09-18T16:46:53.690Z,526.08
2022-09-18T16:49:26.522Z,514.15
2022-09-18T16:51:55.665Z,517.35
2022-09-18T16:54:24.172Z,511.35
2022-09-18T16:56:56.976Z,508.60
2022-09-18T16:59:30.377Z,519.58
2022-09-18T17:02:04.134Z,498.23
2022-09-18T17:04:34.151Z,491.05
2022-09-18T17:07:03.531Z,492.77
2022-09-18T17:09:32.664Z,495.23
2022-09-18T17:12:00.584Z,494.15
2022-09-18T17:14:28.854Z,493.85
2022-09-18T17:16:56.986Z,482.38
2022-09-18T17:19:24.789Z,483.42
2022-09-18T17:21:53.358Z,476.70
2022-09-18T17:24:25.772Z,475.50
2022-09-18T17:26:54.219Z,480.15
2022-09-18T17:29:22.643Z,477.58
2022-09-18T17:31:52.234Z,477.35
2022-09-18T17:34:22.198Z,475.30
2022-09-18T17:36:50.125Z,470.67
2022-09-18T17:39:21.373Z,468.50
2022-09-18T17:41:50.168Z,466.10
2022-09-18T17:44:18.004Z,460.83
2022-09-18T17:46:51.300Z,459.02
2022-09-18T17:49:20.066Z,460.95
2022-09-18T17:51:49.528Z,447.05
2022-09-18T17:54:18.286Z,453.92
2022-09-18T17:56:46.511Z,437.92
2022-09-18T17:59:15.616Z,444.60
2022-09-18T18:01:46.479Z,439.42
2022-09-18T18:04:16.193Z,435.05
2022-09-18T18:06:50.595Z,420.02
2022-09-18T18:09:19.315Z,431.10
2022-09-18T18:11:48.257Z,426.67
2022-09-18T18:14:16.814Z,427.90
2022-09-18T18:16:49.772Z,428.45
2022-09-18T18:19:22.274Z,464.85
2022-09-18T18:21:50.529Z,413.58
2022-09-18T18:24:19.063Z,412.77
2022-09-18T18:26:48.603Z,410.75
2022-09-18T18:29:18.799Z,410.67
2022-09-18T18:31:49.235Z,408.75
2022-09-18T18:34:22.265Z,410.88
2022-09-18T18:36:50.608Z,410.58
2022-09-18T18:39:20.260Z,412.83
2022-09-18T18:41:49.852Z,410.85
2022-09-18T18:44:18.563Z,417.33
2022-09-18T18:46:46.775Z,412.27
2022-09-18T18:49:16.261Z,415.60
2022-09-18T18:51:52.112Z,419.50
2022-09-18T18:54:22.074Z,408.23
2022-09-18T18:56:50.406Z,413.45
2022-09-18T18:59:19.891Z,418.35
2022-09-18T19:01:48.216Z,417.58
2022-09-18T19:04:19.239Z,412.00
2022-09-18T19:06:49.073Z,414.10
2022-09-18T19:09:22.608Z,399.58
2022-09-18T19:11:52.942Z,393.85
2022-09-18T19:14:29.127Z,383.55
2022-09-18T19:16:57.892Z,377.65
2022-09-18T19:19:28.408Z,400.17
2022-09-18T19:22:00.609Z,390.08
2022-09-18T19:24:30.117Z,381.33
2022-09-18T19:26:58.927Z,379.65
2022-09-18T19:29:29.525Z,410.48
2022-09-18T19:32:00.345Z,378.83
2022-09-18T19:34:28.587Z,364.48
2022-09-18T19:36:56.683Z,369.95
2022-09-18T19:39:24.735Z,372.85
2022-09-18T19:41:55.301Z,384.60
2022-09-18T19:44:34.354Z,367.88
2022-09-18T19:47:16.490Z,374.85
2022-09-18T19:49:44.651Z,366.60
2022-09-18T19:52:21.198Z,360.92
2022-09-18T19:54:51.620Z,356.90
2022-09-18T19:57:20.870Z,359.05
2022-09-18T19:59:52.619Z,350.35
2022-09-18T20:02:21.786Z,351.80
2022-09-18T20:04:49.784Z,346.75
2022-09-18T20:07:17.691Z,346.90
2022-09-18T20:09:45.529Z,343.63
2022-09-18T20:12:14.007Z,374.15
2022-09-18T20:14:42.097Z,351.33
2022-09-18T20:17:11.316Z,341.90
2022-09-18T20:19:39.201Z,360.55
2022-09-18T20:22:07.535Z,349.75
2022-09-18T20:24:35.156Z,357.08
2022-09-18T20:27:03.184Z,347.88
2022-09-18T20:29:31.230Z,353.98
2022-09-18T20:31:59.259Z,355.65
2022-09-18T20:34:27.927Z,350.80
2022-09-18T20:36:55.778Z,356.80
2022-09-18T20:39:23.573Z,381.50
2022-09-18T20:41:51.498Z,359.58
2022-09-18T20:44:19.699Z,351.95
2022-09-18T20:46:50.499Z,344.30
2022-09-18T20:49:18.329Z,341.05
2022-09-18T20:51:46.590Z,342.83
2022-09-18T20:54:20.845Z,346.77
2022-09-18T20:56:49.080Z,345.23
2022-09-18T20:59:45.734Z,345.48
2022-09-18T21:02:17.776Z,340.05
2022-09-18T21:04:54.533Z,333.95
2022-09-18T21:07:41.580Z,328.90
2022-09-18T21:10:18.316Z,331.02
2022-09-18T21:12:47.658Z,321.77
2022-09-18T21:15:15.584Z,334.35
2022-09-18T21:17:43.762Z,332.50
2022-09-18T21:20:12.180Z,330.83
2022-09-18T21:23:00.424Z,319.35
2022-09-18T21:25:31.050Z,303.17
2022-09-18T21:27:59.435Z,294.42
2022-09-18T21:30:27.326Z,290.30
2022-09-18T21:32:55.955Z,280.88
2022-09-18T21:35:23.868Z,272.67
2022-09-18T21:37:52.121Z,267.35
2022-09-18T21:40:20.509Z,271.58
2022-09-18T21:42:48.350Z,261.58
2022-09-18T21:45:20.748Z,260.52
2022-09-18T21:47:50.283Z,261.63
2022-09-18T21:50:19.269Z,263.67
2022-09-18T21:52:47.080Z,264.92
2022-09-18T21:55:14.992Z,261.58
2022-09-18T21:57:43.172Z,276.23
2022-09-18T22:00:12.431Z,267.27
2022-09-18T22:02:43.336Z,266.92
2022-09-18T22:05:12.321Z,255.32
2022-09-18T22:07:40.973Z,260.83
2022-09-18T22:10:09.445Z,253.75
2022-09-18T22:12:39.030Z,259.23
2022-09-18T22:15:07.804Z,262.00
2022-09-18T22:17:35.666Z,259.55
2022-09-18T22:20:03.989Z,263.90
2022-09-18T22:22:34.214Z,259.75
2022-09-18T22:25:03.292Z,259.00
2022-09-18T22:27:31.096Z,257.02
2022-09-18T22:29:59.009Z,255.35
2022-09-18T22:32:27.177Z,260.35
2022-09-18T22:34:55.960Z,255.52
2022-09-18T22:37:23.947Z,257.58
2022-09-18T22:39:51.907Z,245.13
2022-09-18T22:42:19.981Z,262.05
2022-09-18T22:44:48.002Z,262.23
2022-09-18T22:47:15.967Z,251.18
2022-09-18T22:49:43.877Z,250.45
2022-09-18T22:52:11.769Z,247.07
2022-09-18T22:54:39.713Z,247.75
2022-09-18T22:57:07.561Z,249.80
2022-09-18T22:59:35.614Z,249.02
2022-09-18T23:02:08.109Z,244.57
2022-09-18T23:04:36.755Z,244.98
2022-09-18T23:07:04.705Z,234.45
2022-09-18T23:09:32.642Z,231.73
2022-09-18T23:12:00.509Z,242.68
2022-09-18T23:14:31.271Z,238.38
2022-09-18T23:17:00.860Z,231.80
2022-09-18T23:19:34.351Z,233.63
2022-09-18T23:22:02.659Z,226.93
2022-09-18T23:24:31.860Z,229.60
2022-09-18T23:27:00.485Z,234.90
2022-09-18T23:29:31.968Z,229.98
2022-09-18T23:32:00.518Z,227.77
2022-09-18T23:34:31.776Z,218.15
2022-09-18T23:37:00.663Z,212.65
2022-09-18T23:39:32.482Z,216.30
2022-09-18T23:42:02.721Z,217.35
2022-09-18T23:44:31.706Z,207.55
2022-09-18T23:47:00.545Z,209.93
2022-09-18T23:49:29.685Z,212.23
2022-09-18T23:51:59.513Z,196.23
2022-09-18T23:54:31.920Z,206.05
2022-09-18T23:56:59.751Z,196.23
2022-09-18T23:59:28.516Z,200.80
